Time;durP1;ratioP1;P1;durP2;ratioP2;P2;SDS_P1;SDS_P2;PMS_P1;PMS_P2;Temp;Humidity;BMP_temperature;BMP_pressure;BME280_temperature;BME280_humidity;BME280_pressure;Samples;Min_cycle;Max_cycle;Signal;HPM_P1;HPM_P2
2023/03/22 00:00:55;;;;;;;35.75;16.98;;;14.30;84.20;;;;;;5073860;28;20086;-67
2023/03/22 00:03:22;;;;;;;21.05;15.75;;;14.30;84.10;;;;;;5073932;28;20035;-67
2023/03/22 00:05:48;;;;;;;23.15;16.65;;;14.30;83.60;;;;;;5073739;28;20109;-67
2023/03/22 00:08:14;;;;;;;25.27;17.95;;;14.30;82.90;;;;;;5073593;28;20120;-68
2023/03/22 00:10:40;;;;;;;19.48;15.60;;;14.30;82.80;;;;;;5073589;28;20063;-70
2023/03/22 00:13:08;;;;;;;22.15;16.08;;;14.30;83.10;;;;;;5073355;28;20193;-69
2023/03/22 00:15:35;;;;;;;23.63;17.42;;;14.30;83.00;;;;;;5073723;28;20051;-68
2023/03/22 00:18:04;;;;;;;23.58;16.20;;;14.30;83.10;;;;;;5073428;28;20028;-70
2023/03/22 00:20:32;;;;;;;22.17;16.90;;;14.20;83.20;;;;;;5073428;28;20089;-68
2023/03/22 00:22:58;;;;;;;22.77;17.67;;;14.20;82.90;;;;;;5073272;28;20029;-69
2023/03/22 00:25:24;;;;;;;27.55;18.88;;;14.20;82.60;;;;;;5073341;28;20024;-67
2023/03/22 00:27:50;;;;;;;25.08;17.75;;;14.20;82.50;;;;;;5073381;28;20111;-68
2023/03/22 00:30:16;;;;;;;22.30;17.25;;;14.10;82.50;;;;;;5073361;28;20041;-68
2023/03/22 00:32:42;;;;;;;25.48;17.60;;;14.10;82.80;;;;;;5072800;28;20064;-67
2023/03/22 00:35:09;;;;;;;24.30;16.90;;;14.20;82.60;;;;;;5073355;28;20056;-67
2023/03/22 00:37:37;;;;;;;18.73;15.95;;;14.10;81.90;;;;;;5073283;28;20031;-67
2023/03/22 00:40:12;;;;;;;18.98;15.57;;;14.10;81.60;;;;;;5073097;28;20040;-67
2023/03/22 00:42:39;;;;;;;19.35;15.93;;;14.10;82.20;;;;;;5073226;28;20028;-67
2023/03/22 00:45:07;;;;;;;19.48;14.75;;;14.00;82.10;;;;;;5073102;28;20503;-68
2023/03/22 00:47:33;;;;;;;18.83;14.50;;;14.00;82.30;;;;;;5072364;28;20052;-67
2023/03/22 00:49:59;;;;;;;21.88;14.15;;;14.00;82.60;;;;;;5072660;28;20044;-67
2023/03/22 00:52:25;;;;;;;20.45;15.50;;;14.00;82.70;;;;;;5073058;28;20032;-68
2023/03/22 00:54:51;;;;;;;20.42;14.50;;;14.00;82.90;;;;;;5073043;28;20064;-67
2023/03/22 00:57:17;;;;;;;19.20;14.85;;;14.00;83.00;;;;;;5073072;28;20075;-67
2023/03/22 00:59:43;;;;;;;24.63;14.90;;;14.00;83.00;;;;;;5072783;28;20063;-67
2023/03/22 01:02:12;;;;;;;20.80;15.15;;;14.00;83.60;;;;;;5072329;28;20439;-68
2023/03/22 01:04:45;;;;;;;20.35;14.68;;;13.90;82.90;;;;;;5072496;28;20234;-67
2023/03/22 01:07:20;;;;;;;21.38;14.55;;;13.90;83.00;;;;;;5073011;28;20063;-67
2023/03/22 01:09:50;;;;;;;19.13;13.73;;;13.90;82.60;;;;;;5072708;28;20041;-67
2023/03/22 01:12:17;;;;;;;18.83;13.73;;;13.90;83.10;;;;;;5072540;28;20033;-67
2023/03/22 01:14:43;;;;;;;18.63;13.57;;;13.90;83.00;;;;;;5072601;28;20090;-67
2023/03/22 01:17:09;;;;;;;21.90;13.07;;;13.90;83.20;;;;;;5072659;28;20369;-68
2023/03/22 01:19:36;;;;;;;19.67;13.35;;;13.90;83.60;;;;;;5072681;28;20040;-67
2023/03/22 01:22:03;;;;;;;20.00;14.43;;;13.90;83.40;;;;;;5072427;28;20036;-67
2023/03/22 01:24:29;;;;;;;17.98;13.13;;;13.90;83.00;;;;;;5072360;28;20166;-67
2023/03/22 01:26:56;;;;;;;17.92;13.25;;;13.90;83.10;;;;;;5072621;28;20033;-67
2023/03/22 01:29:22;;;;;;;16.35;13.02;;;13.80;83.50;;;;;;5072413;28;20047;-67
2023/03/22 01:31:48;;;;;;;19.98;13.77;;;13.80;83.30;;;;;;5072617;28;20086;-67
2023/03/22 01:34:14;;;;;;;16.40;13.25;;;13.80;82.60;;;;;;5072186;28;20032;-68
2023/03/22 01:36:39;;;;;;;16.98;13.02;;;13.80;82.30;;;;;;5072310;28;20447;-67
2023/03/22 01:39:05;;;;;;;18.35;12.63;;;13.80;82.10;;;;;;5072028;28;20029;-67
2023/03/22 01:41:35;;;;;;;17.20;11.60;;;13.80;81.70;;;;;;5072218;28;20112;-67
2023/03/22 01:44:15;;;;;;;17.58;12.00;;;13.70;81.70;;;;;;5072321;28;20068;-67
2023/03/22 01:46:44;;;;;;;18.95;12.27;;;13.70;81.60;;;;;;5064537;28;20500;-67
2023/03/22 01:49:18;;;;;;;16.35;11.82;;;13.70;81.60;;;;;;5051826;28;20048;-67
2023/03/22 01:51:47;;;;;;;22.20;11.80;;;13.70;81.40;;;;;;5052119;28;20033;-67
2023/03/22 01:54:19;;;;;;;17.58;12.43;;;13.70;81.50;;;;;;5052053;28;20046;-67
2023/03/22 01:56:46;;;;;;;15.90;11.85;;;13.70;81.70;;;;;;5052056;28;20029;-68
2023/03/22 01:59:14;;;;;;;14.57;11.50;;;13.60;81.70;;;;;;5049545;28;20049;-67
2023/03/22 02:01:40;;;;;;;17.95;12.63;;;13.60;81.90;;;;;;5051009;28;20044;-67
2023/03/22 02:04:12;;;;;;;18.25;11.75;;;13.60;81.90;;;;;;5053804;28;20393;-67
2023/03/22 02:06:38;;;;;;;19.17;12.90;;;13.60;81.90;;;;;;5055440;28;20536;-67
2023/03/22 02:09:06;;;;;;;20.00;12.80;;;13.60;82.00;;;;;;5054104;28;20131;-67
2023/03/22 02:11:41;;;;;;;22.63;13.50;;;13.60;82.70;;;;;;5055495;28;20035;-67
2023/03/22 02:14:24;;;;;;;16.95;12.48;;;13.60;82.30;;;;;;5055180;28;20036;-67
2023/03/22 02:17:09;;;;;;;19.95;12.75;;;13.60;82.50;;;;;;5054099;28;20029;-67
2023/03/22 02:19:52;;;;;;;16.48;12.48;;;13.50;82.40;;;;;;5055476;28;20120;-67
2023/03/22 02:22:38;;;;;;;18.65;12.18;;;13.50;82.70;;;;;;5055276;28;20059;-67
2023/03/22 02:25:12;;;;;;;18.00;12.15;;;13.50;83.10;;;;;;5055298;28;20569;-67
2023/03/22 02:28:00;;;;;;;17.50;11.23;;;13.60;83.60;;;;;;5054989;28;20063;-67
2023/03/22 02:30:38;;;;;;;17.13;12.30;;;13.60;83.80;;;;;;5055300;28;20037;-67
2023/03/22 02:33:10;;;;;;;17.45;12.98;;;13.60;83.80;;;;;;5055595;28;20515;-68
2023/03/22 02:35:54;;;;;;;14.98;11.57;;;13.60;83.60;;;;;;5055348;28;20112;-68
2023/03/22 02:38:20;;;;;;;16.73;11.88;;;13.60;83.70;;;;;;5054173;28;20380;-68
2023/03/22 02:40:48;;;;;;;14.25;10.93;;;13.60;84.20;;;;;;5055155;28;20037;-67
2023/03/22 02:43:33;;;;;;;13.55;11.23;;;13.60;84.40;;;;;;5055390;28;20061;-67
2023/03/22 02:46:16;;;;;;;14.15;10.95;;;13.60;84.50;;;;;;5053513;28;20041;-67
2023/03/22 02:48:51;;;;;;;14.82;10.98;;;13.60;84.20;;;;;;5052704;28;20056;-67
2023/03/22 02:51:23;;;;;;;14.43;10.43;;;13.60;84.40;;;;;;5053830;28;20037;-67
2023/03/22 02:54:02;;;;;;;16.05;11.63;;;13.60;84.40;;;;;;5053597;28;20113;-68
2023/03/22 02:56:38;;;;;;;16.98;11.68;;;13.50;83.80;;;;;;5053892;28;20041;-67
2023/03/22 02:59:06;;;;;;;18.17;11.65;;;13.60;83.60;;;;;;5054052;28;20029;-67
2023/03/22 03:01:55;;;;;;;23.52;12.32;;;13.50;83.60;;;;;;5053733;28;20028;-67
2023/03/22 03:04:27;;;;;;;16.40;11.63;;;13.50;83.80;;;;;;5053448;28;20064;-67
2023/03/22 03:06:56;;;;;;;17.15;12.02;;;13.50;84.00;;;;;;5053449;28;20067;-67
2023/03/22 03:09:23;;;;;;;13.50;10.73;;;13.50;84.30;;;;;;5053696;28;20041;-67
2023/03/22 03:11:52;;;;;;;16.70;12.07;;;13.50;84.40;;;;;;5053617;28;20033;-68
2023/03/22 03:14:27;;;;;;;15.52;11.20;;;13.50;84.60;;;;;;5053553;28;20032;-67
2023/03/22 03:17:05;;;;;;;15.82;10.82;;;13.50;85.20;;;;;;5053353;28;20025;-67
2023/03/22 03:19:43;;;;;;;14.65;11.32;;;13.50;85.20;;;;;;5053234;28;20064;-67
2023/03/22 03:22:42;;;;;;;15.50;10.40;;;13.50;85.10;;;;;;5053242;28;20056;-67
2023/03/22 03:25:19;;;;;;;17.70;10.38;;;13.50;85.20;;;;;;5053436;28;20044;-67
2023/03/22 03:28:08;;;;;;;18.73;10.23;;;13.50;85.20;;;;;;5053255;28;20029;-67
2023/03/22 03:30:44;;;;;;;13.95;9.90;;;13.40;85.20;;;;;;5053255;28;20037;-67
2023/03/22 03:33:16;;;;;;;15.07;9.77;;;13.40;85.30;;;;;;5051925;28;20029;-67
2023/03/22 03:35:51;;;;;;;10.23;8.68;;;13.40;85.00;;;;;;5053452;28;20498;-67
2023/03/22 03:38:22;;;;;;;12.80;9.30;;;13.40;84.70;;;;;;5053283;28;20232;-67
2023/03/22 03:40:55;;;;;;;12.77;9.10;;;13.40;84.60;;;;;;5053292;28;20385;-67
2023/03/22 03:43:24;;;;;;;13.70;9.70;;;13.40;84.80;;;;;;5053077;28;20084;-67
2023/03/22 03:45:51;;;;;;;13.28;9.78;;;13.40;85.00;;;;;;5018745;28;1279556;-67
2023/03/22 03:48:21;;;;;;;14.85;9.38;;;13.40;84.80;;;;;;5053765;28;20241;-67
2023/03/22 03:50:49;;;;;;;13.23;9.38;;;13.40;84.90;;;;;;5053775;28;20033;-67
2023/03/22 03:53:15;;;;;;;15.93;9.93;;;13.40;84.70;;;;;;5053760;28;20083;-67
2023/03/22 03:55:41;;;;;;;13.65;8.93;;;13.40;84.80;;;;;;5053775;28;20033;-67
2023/03/22 03:58:08;;;;;;;13.38;9.90;;;13.40;84.70;;;;;;5053822;28;20045;-67
2023/03/22 04:00:34;;;;;;;15.05;10.25;;;13.40;84.50;;;;;;5053789;28;20029;-67
2023/03/22 04:03:01;;;;;;;15.30;10.73;;;13.40;84.50;;;;;;5053460;28;20109;-67
2023/03/22 04:05:26;;;;;;;13.35;9.93;;;13.40;84.50;;;;;;5053798;28;20497;-67
2023/03/22 04:07:52;;;;;;;13.15;10.30;;;13.40;85.00;;;;;;5053568;28;20047;-67
2023/03/22 04:10:18;;;;;;;11.88;10.00;;;13.40;85.10;;;;;;5053667;28;20048;-67
2023/03/22 04:12:44;;;;;;;15.73;9.93;;;13.40;85.20;;;;;;5053334;28;20036;-67
2023/03/22 04:15:10;;;;;;;13.02;9.95;;;13.40;85.20;;;;;;5053483;28;20029;-67
2023/03/22 04:17:38;;;;;;;12.02;9.82;;;13.30;85.00;;;;;;5053088;28;20104;-67
2023/03/22 04:20:05;;;;;;;15.23;9.82;;;13.30;84.80;;;;;;5053110;28;20032;-67
2023/03/22 04:22:33;;;;;;;16.42;9.25;;;13.30;85.00;;;;;;5053274;28;20044;-67
2023/03/22 04:25:00;;;;;;;15.30;10.13;;;13.30;85.20;;;;;;5052808;28;20485;-67
2023/03/22 04:27:26;;;;;;;13.27;9.18;;;13.30;85.10;;;;;;5051943;28;20040;-67
2023/03/22 04:29:53;;;;;;;15.10;10.63;;;13.30;85.00;;;;;;5053191;28;20462;-67
2023/03/22 04:32:21;;;;;;;15.98;10.20;;;13.20;85.00;;;;;;5052686;28;20071;-67
2023/03/22 04:34:51;;;;;;;14.13;10.18;;;13.20;84.80;;;;;;5053005;28;20028;-67
2023/03/22 04:37:18;;;;;;;16.40;9.93;;;13.20;84.80;;;;;;5053042;28;20103;-67
2023/03/22 04:39:44;;;;;;;13.77;9.70;;;13.20;84.80;;;;;;5053009;28;20112;-67
2023/03/22 04:42:11;;;;;;;15.82;10.38;;;13.20;84.90;;;;;;5052813;28;20543;-67
2023/03/22 04:44:37;;;;;;;14.32;10.45;;;13.20;85.00;;;;;;5052819;28;20080;-67
2023/03/22 04:47:03;;;;;;;11.38;9.15;;;13.20;85.20;;;;;;5052665;28;20469;-67
2023/03/22 04:49:30;;;;;;;20.60;9.45;;;13.20;85.10;;;;;;5052886;28;20048;-68
2023/03/22 04:51:56;;;;;;;16.67;9.70;;;13.10;85.20;;;;;;5052852;28;20029;-67
2023/03/22 04:54:23;;;;;;;13.88;10.02;;;13.10;85.80;;;;;;5052585;28;20040;-67
2023/03/22 04:56:49;;;;;;;11.88;9.88;;;13.10;86.10;;;;;;5052527;28;20029;-68
2023/03/22 04:59:18;;;;;;;12.73;9.27;;;13.10;86.10;;;;;;5052719;28;20091;-67
2023/03/22 05:01:48;;;;;;;13.30;9.38;;;13.10;85.70;;;;;;5052892;28;20037;-67
2023/03/22 05:04:14;;;;;;;16.20;10.38;;;13.10;85.50;;;;;;5052879;28;20033;-67
2023/03/22 05:06:40;;;;;;;17.83;9.80;;;13.10;85.90;;;;;;5052785;28;20109;-68
2023/03/22 05:09:06;;;;;;;12.75;9.52;;;13.10;86.00;;;;;;5052687;28;20510;-68
2023/03/22 05:11:32;;;;;;;16.33;10.93;;;13.10;86.30;;;;;;5052462;28;20021;-68
2023/03/22 05:13:58;;;;;;;15.85;9.52;;;13.10;86.20;;;;;;5052164;28;20040;-68
2023/03/22 05:16:24;;;;;;;13.45;10.15;;;13.00;86.00;;;;;;5052678;28;20075;-68
2023/03/22 05:18:53;;;;;;;15.05;10.18;;;13.00;86.30;;;;;;5052484;28;20068;-68
2023/03/22 05:21:26;;;;;;;16.77;11.30;;;13.00;86.30;;;;;;5052727;28;20421;-68
2023/03/22 05:23:54;;;;;;;20.25;11.77;;;13.00;86.30;;;;;;5052716;28;20044;-68
2023/03/22 05:26:23;;;;;;;16.10;10.82;;;13.00;86.50;;;;;;5052561;28;20060;-68
2023/03/22 05:28:50;;;;;;;15.13;10.77;;;13.00;86.70;;;;;;5052205;28;20386;-68
2023/03/22 05:31:16;;;;;;;14.85;11.32;;;13.00;86.90;;;;;;5052010;28;20040;-68
2023/03/22 05:33:45;;;;;;;15.93;12.00;;;12.90;86.90;;;;;;5052225;28;20481;-68
2023/03/22 05:36:11;;;;;;;17.55;13.02;;;12.90;86.80;;;;;;5053149;28;20104;-68
2023/03/22 05:38:37;;;;;;;19.17;12.70;;;12.90;86.70;;;;;;5056418;28;20484;-68
2023/03/22 05:41:03;;;;;;;14.60;11.77;;;12.90;86.90;;;;;;5056342;28;20366;-68
2023/03/22 05:43:29;;;;;;;15.95;11.05;;;12.90;87.00;;;;;;5056278;28;20036;-68
2023/03/22 05:45:54;;;;;;;17.33;11.13;;;12.90;86.80;;;;;;5056184;28;20029;-68
2023/03/22 05:48:20;;;;;;;16.55;10.10;;;12.90;86.90;;;;;;5055830;28;20052;-68
2023/03/22 05:50:46;;;;;;;20.00;9.80;;;12.90;87.00;;;;;;5056006;28;20076;-68
2023/03/22 05:53:12;;;;;;;15.60;9.80;;;12.90;87.10;;;;;;5056111;28;20133;-69
2023/03/22 05:55:37;;;;;;;13.15;10.13;;;12.90;87.30;;;;;;5056085;28;20037;-69
2023/03/22 05:58:04;;;;;;;12.90;9.07;;;12.90;87.70;;;;;;5056203;28;20068;-68
2023/03/22 06:00:32;;;;;;;14.90;9.95;;;12.80;87.20;;;;;;5056090;28;20524;-68
2023/03/22 06:03:04;;;;;;;16.23;9.20;;;12.90;87.80;;;;;;5056144;28;20045;-69
2023/03/22 06:05:31;;;;;;;11.88;9.40;;;12.90;88.20;;;;;;5056017;28;20068;-68
2023/03/22 06:07:58;;;;;;;14.30;9.43;;;12.90;87.90;;;;;;5055730;28;20111;-69
2023/03/22 06:10:25;;;;;;;16.73;10.13;;;12.80;87.10;;;;;;5055799;28;20044;-68
2023/03/22 06:12:52;;;;;;;13.90;10.90;;;12.80;87.20;;;;;;5055745;28;20079;-68
2023/03/22 06:15:17;;;;;;;16.10;10.20;;;12.80;86.90;;;;;;5055524;28;20052;-69
2023/03/22 06:17:43;;;;;;;12.77;10.38;;;12.80;86.90;;;;;;5055366;28;20481;-69
2023/03/22 06:20:11;;;;;;;16.88;11.05;;;12.80;87.60;;;;;;5070773;28;20029;-68
2023/03/22 06:22:38;;;;;;;19.13;11.32;;;12.90;88.90;;;;;;5055140;28;20033;-68
2023/03/22 06:25:06;;;;;;;19.08;10.80;;;12.80;87.80;;;;;;5055517;28;20100;-69
2023/03/22 06:27:32;;;;;;;18.38;11.77;;;12.80;88.20;;;;;;5055587;28;20033;-68
2023/03/22 06:29:58;;;;;;;19.08;11.25;;;12.80;88.40;;;;;;5055396;28;20178;-68
2023/03/22 06:32:25;;;;;;;18.83;9.80;;;12.90;88.60;;;;;;5055342;28;20057;-69
2023/03/22 06:34:52;;;;;;;15.90;10.15;;;12.90;88.70;;;;;;5055432;28;20099;-68
2023/03/22 06:37:18;;;;;;;20.92;10.73;;;12.90;88.40;;;;;;5055180;28;20043;-68
2023/03/22 06:39:43;;;;;;;15.88;10.00;;;12.90;88.20;;;;;;5055264;28;20155;-69
2023/03/22 06:42:09;;;;;;;15.85;11.25;;;12.90;88.40;;;;;;5055225;28;20103;-68
2023/03/22 06:44:35;;;;;;;14.93;10.65;;;12.90;88.80;;;;;;5054796;28;20029;-69
2023/03/22 06:47:01;;;;;;;20.77;11.35;;;12.90;89.30;;;;;;5054679;28;20049;-69
2023/03/22 06:49:27;;;;;;;15.13;11.05;;;12.90;89.50;;;;;;5055087;28;20084;-68
2023/03/22 06:51:53;;;;;;;18.00;10.88;;;13.00;89.50;;;;;;5054908;28;20492;-68
2023/03/22 06:54:20;;;;;;;15.60;10.38;;;13.00;89.50;;;;;;5055272;28;20069;-68
2023/03/22 06:56:46;;;;;;;18.45;10.50;;;13.10;89.50;;;;;;5054999;28;20086;-69
2023/03/22 06:59:11;;;;;;;16.45;10.00;;;13.10;89.60;;;;;;5055100;28;20036;-69
2023/03/22 07:01:37;;;;;;;18.95;10.60;;;13.20;89.70;;;;;;5054919;28;20025;-68
2023/03/22 07:04:03;;;;;;;20.90;10.48;;;13.20;89.70;;;;;;5054905;28;20029;-69
2023/03/22 07:06:31;;;;;;;21.42;10.32;;;13.30;89.60;;;;;;5054622;28;20025;-69
2023/03/22 07:08:56;;;;;;;15.13;10.15;;;13.30;89.50;;;;;;5054673;28;20041;-68
2023/03/22 07:11:24;;;;;;;15.90;10.48;;;13.40;89.40;;;;;;5054765;28;20385;-76
2023/03/22 07:13:51;;;;;;;20.40;11.25;;;13.50;89.60;;;;;;5054332;28;20055;-76
2023/03/22 07:16:17;;;;;;;16.08;10.32;;;13.60;89.40;;;;;;5054287;28;20033;-75
2023/03/22 07:18:43;;;;;;;20.95;10.35;;;13.60;88.80;;;;;;5054302;28;20396;-73
2023/03/22 07:21:09;;;;;;;19.40;9.80;;;13.70;88.10;;;;;;5054183;28;20036;-71
2023/03/22 07:23:35;;;;;;;22.67;10.25;;;13.80;87.60;;;;;;5054541;28;20354;-71
2023/03/22 07:26:00;;;;;;;18.33;10.23;;;13.80;87.10;;;;;;5054608;28;20048;-69
2023/03/22 07:28:27;;;;;;;25.77;10.20;;;13.90;86.80;;;;;;5053856;28;20041;-69
2023/03/22 07:31:00;;;;;;;12.63;9.45;;;14.00;86.50;;;;;;5054081;28;20037;-72
2023/03/22 07:33:26;;;;;;;12.18;9.50;;;14.10;86.30;;;;;;5054194;28;20036;-72
2023/03/22 07:35:51;;;;;;;19.58;10.10;;;14.10;85.80;;;;;;5054071;28;20033;-72
2023/03/22 07:38:18;;;;;;;13.82;9.02;;;14.20;85.70;;;;;;5053868;28;20036;-73
2023/03/22 07:40:43;;;;;;;14.30;9.90;;;14.30;85.20;;;;;;5053776;28;20053;-72
2023/03/22 07:43:11;;;;;;;14.00;10.13;;;14.40;85.00;;;;;;5054102;28;20079;-72
2023/03/22 07:45:39;;;;;;;13.95;9.02;;;14.40;84.60;;;;;;5053949;28;20035;-72
2023/03/22 07:48:05;;;;;;;17.02;9.55;;;14.50;84.10;;;;;;5052279;28;20045;-71
2023/03/22 07:50:31;;;;;;;16.65;10.38;;;14.60;84.00;;;;;;5054034;28;20031;-73
2023/03/22 07:52:57;;;;;;;15.48;9.13;;;14.60;83.40;;;;;;5053990;28;20029;-72
2023/03/22 07:55:23;;;;;;;16.42;8.98;;;14.70;82.80;;;;;;5053946;28;20040;-72
2023/03/22 07:57:48;;;;;;;11.90;8.43;;;14.80;82.60;;;;;;5053802;28;20029;-73
2023/03/22 08:00:16;;;;;;;14.88;8.57;;;14.90;82.50;;;;;;5052789;28;20385;-73
2023/03/22 08:02:44;;;;;;;16.80;9.35;;;14.90;82.60;;;;;;5053233;28;20112;-71
2023/03/22 08:05:10;;;;;;;13.68;8.85;;;15.00;82.80;;;;;;5053423;28;20048;-71
2023/03/22 08:07:36;;;;;;;15.30;9.45;;;15.10;81.80;;;;;;5053415;28;20029;-72
2023/03/22 08:10:03;;;;;;;17.73;9.38;;;15.20;81.30;;;;;;5052777;28;20084;-72
2023/03/22 08:12:30;;;;;;;14.82;8.90;;;15.30;80.80;;;;;;5052964;28;20033;-72
2023/03/22 08:14:56;;;;;;;14.63;10.57;;;15.30;80.80;;;;;;5052526;28;20124;-71
2023/03/22 08:17:22;;;;;;;21.73;10.90;;;15.40;80.80;;;;;;5053222;28;20104;-72
2023/03/22 08:19:48;;;;;;;16.65;10.10;;;15.50;80.20;;;;;;5053137;28;20068;-72
2023/03/22 08:22:14;;;;;;;17.65;10.85;;;15.60;80.10;;;;;;5053329;28;20052;-71
2023/03/22 08:24:40;;;;;;;19.67;10.40;;;15.70;80.00;;;;;;5053093;28;20037;-73
2023/03/22 08:27:06;;;;;;;18.48;10.35;;;15.80;79.90;;;;;;5052793;28;20040;-72
2023/03/22 08:29:32;;;;;;;14.82;10.43;;;15.90;80.90;;;;;;5053049;28;20119;-73
2023/03/22 08:32:01;;;;;;;16.75;9.45;;;16.00;80.40;;;;;;5053201;28;20033;-72
2023/03/22 08:34:28;;;;;;;14.32;9.60;;;16.10;79.80;;;;;;5053171;28;20036;-72
2023/03/22 08:36:54;;;;;;;13.55;9.77;;;16.10;79.20;;;;;;5052972;28;20082;-73
2023/03/22 08:39:21;;;;;;;19.25;10.63;;;16.20;79.30;;;;;;5052948;28;20048;-73
2023/03/22 08:41:47;;;;;;;17.90;11.57;;;16.30;79.40;;;;;;5053004;28;20033;-72
2023/03/22 08:44:12;;;;;;;20.15;13.82;;;16.40;79.30;;;;;;5053204;28;20090;-73
2023/03/22 08:46:38;;;;;;;25.60;15.35;;;16.50;78.70;;;;;;5059429;28;20055;-72
2023/03/22 08:49:04;;;;;;;25.15;16.92;;;16.60;78.50;;;;;;5072720;28;20075;-72
2023/03/22 08:51:30;;;;;;;28.75;18.30;;;16.70;76.70;;;;;;5071962;28;20037;-72
2023/03/22 08:53:59;;;;;;;23.75;17.00;;;16.80;76.40;;;;;;5073083;28;20079;-72
2023/03/22 08:56:26;;;;;;;29.85;16.52;;;16.80;76.20;;;;;;5072877;28;20477;-72
2023/03/22 08:58:52;;;;;;;21.35;15.48;;;16.90;76.20;;;;;;5072707;28;20035;-71
2023/03/22 09:01:19;;;;;;;22.05;15.35;;;17.00;74.80;;;;;;5071175;28;20031;-73
2023/03/22 09:03:45;;;;;;;29.95;17.42;;;17.00;74.90;;;;;;5071305;28;20039;-73
2023/03/22 09:06:11;;;;;;;29.70;20.20;;;17.00;75.10;;;;;;5071185;28;20035;-71
2023/03/22 09:08:37;;;;;;;31.55;19.88;;;17.00;74.60;;;;;;5071132;28;20048;-71
2023/03/22 09:11:03;;;;;;;30.50;21.33;;;17.10;74.60;;;;;;5071019;28;20032;-72
2023/03/22 09:13:29;;;;;;;34.08;19.98;;;17.10;73.60;;;;;;5071017;28;20028;-72
2023/03/22 09:15:56;;;;;;;30.67;19.95;;;17.10;73.90;;;;;;5072228;28;20044;-72
2023/03/22 09:18:23;;;;;;;29.50;17.90;;;17.10;74.20;;;;;;5072852;28;20045;-71
2023/03/22 09:20:50;;;;;;;33.53;20.13;;;17.10;74.10;;;;;;5072770;28;20036;-72
2023/03/22 09:23:16;;;;;;;28.20;21.13;;;17.20;73.70;;;;;;5072792;28;20033;-72
2023/03/22 09:25:45;;;;;;;28.65;17.95;;;17.20;73.80;;;;;;5072585;28;20074;-72
2023/03/22 09:28:11;;;;;;;33.65;19.70;;;17.30;73.60;;;;;;5072392;28;20043;-72
2023/03/22 09:30:37;;;;;;;30.90;20.83;;;17.30;73.50;;;;;;5072299;28;20037;-72
2023/03/22 09:33:03;;;;;;;26.20;19.50;;;17.40;73.00;;;;;;5072538;28;20427;-72
2023/03/22 09:35:30;;;;;;;29.35;19.15;;;17.40;72.90;;;;;;5072272;28;20492;-72
2023/03/22 09:37:57;;;;;;;32.10;20.10;;;17.40;72.30;;;;;;5072195;28;20033;-72
2023/03/22 09:40:29;;;;;;;26.52;17.13;;;17.40;72.20;;;;;;5072068;28;20040;-72
2023/03/22 09:42:59;;;;;;;32.65;16.70;;;17.40;72.10;;;;;;5072306;28;20443;-72
2023/03/22 09:45:36;;;;;;;22.27;16.52;;;17.50;73.10;;;;;;5072358;28;20075;-72
2023/03/22 09:48:05;;;;;;;22.65;17.30;;;17.50;73.20;;;;;;5072254;28;20037;-72
2023/03/22 09:50:32;;;;;;;30.45;16.95;;;17.60;72.80;;;;;;5072283;28;20037;-72
2023/03/22 09:52:59;;;;;;;23.80;15.57;;;17.60;73.20;;;;;;5072559;28;20492;-72
2023/03/22 09:55:25;;;;;;;22.30;15.48;;;17.70;73.20;;;;;;5072425;28;20032;-72
2023/03/22 09:58:15;;;;;;;24.48;16.42;;;17.80;73.20;;;;;;5072344;28;20032;-72
2023/03/22 10:00:53;;;;;;;26.70;17.08;;;17.80;73.30;;;;;;5054382;28;20158;-72
2023/03/22 10:03:29;;;;;;;26.35;16.33;;;17.90;72.50;;;;;;5054407;28;20040;-73
2023/03/22 10:06:00;;;;;;;28.02;16.35;;;18.00;72.50;;;;;;5072517;28;20377;-72
2023/03/22 10:08:49;;;;;;;30.40;15.45;;;18.10;72.60;;;;;;5072142;28;20051;-73
2023/03/22 10:11:43;;;;;;;26.00;15.13;;;18.10;72.60;;;;;;5053943;28;20064;-73
2023/03/22 10:14:34;;;;;;;26.38;18.00;;;18.20;72.10;;;;;;5072163;28;20029;-72
2023/03/22 10:17:05;;;;;;;28.65;17.75;;;18.30;70.60;;;;;;5054142;28;20481;-73
2023/03/22 10:19:42;;;;;;;30.20;18.95;;;18.40;69.70;;;;;;5071987;28;20139;-72
2023/03/22 10:22:13;;;;;;;36.00;21.85;;;18.50;70.30;;;;;;5072910;28;20060;-71
2023/03/22 10:24:43;;;;;;;31.52;20.85;;;18.60;69.40;;;;;;5075783;28;20043;-72
2023/03/22 10:27:19;;;;;;;33.85;26.83;;;18.70;68.40;;;;;;5075918;28;20064;-72
2023/03/22 10:29:55;;;;;;;35.35;24.70;;;18.80;67.50;;;;;;5057781;28;20052;-72
2023/03/22 10:32:48;;;;;;;38.45;28.30;;;18.80;66.50;;;;;;5075772;28;20036;-72
2023/03/22 10:35:14;;;;;;;;;;;18.90;65.00;;;;;;5076154;28;20032;-72
2023/03/22 10:37:44;;;;;;;51.35;34.63;;;19.00;63.80;;;;;;5075477;28;20291;-73
2023/03/22 10:40:18;;;;;;;50.75;34.95;;;19.00;63.90;;;;;;5075506;28;20024;-72
2023/03/22 10:42:53;;;;;;;39.15;29.00;;;19.10;63.90;;;;;;5075348;28;20032;-72
2023/03/22 10:45:20;;;;;;;40.13;27.55;;;19.20;64.00;;;;;;5075332;28;20055;-72
2023/03/22 10:48:02;;;;;;;38.95;27.83;;;19.30;62.00;;;;;;5075015;28;20052;-71
2023/03/22 10:50:36;;;;;;;41.03;30.20;;;19.30;60.80;;;;;;5056993;28;20045;-72
2023/03/22 10:53:20;;;;;;;40.30;29.55;;;19.40;61.60;;;;;;5057292;28;20035;-72
2023/03/22 10:55:46;;;;;;;41.58;31.83;;;19.50;61.40;;;;;;5075133;28;20516;-72
2023/03/22 10:58:18;;;;;;;39.97;29.52;;;19.60;60.10;;;;;;5075039;28;20039;-72
2023/03/22 11:00:51;;;;;;;44.13;29.13;;;19.60;58.90;;;;;;5074719;28;20056;-73
2023/03/22 11:03:39;;;;;;;40.42;28.85;;;19.70;59.10;;;;;;5074807;28;20400;-72
2023/03/22 11:06:10;;;;;;;41.70;28.38;;;19.80;59.70;;;;;;5074189;28;20060;-72
2023/03/22 11:08:38;;;;;;;31.27;23.80;;;19.80;58.90;;;;;;5074773;28;20492;-72
2023/03/22 11:11:22;;;;;;;40.33;28.30;;;19.90;57.10;;;;;;5074830;28;20044;-73
2023/03/22 11:13:56;;;;;;;38.60;27.80;;;19.90;57.80;;;;;;5074681;28;20039;-72
2023/03/22 11:16:22;;;;;;;38.78;26.70;;;20.00;57.80;;;;;;5056907;28;20435;-72
2023/03/22 11:18:48;;;;;;;38.75;26.23;;;20.00;58.30;;;;;;5074430;28;20500;-72
2023/03/22 11:21:16;;;;;;;37.92;27.50;;;20.00;57.60;;;;;;5074592;28;20024;-72
2023/03/22 11:24:05;;;;;;;33.92;24.58;;;20.00;57.70;;;;;;5074317;28;20107;-72
2023/03/22 11:26:36;;;;;;;38.65;27.27;;;20.10;58.50;;;;;;5074492;28;20032;-72
2023/03/22 11:29:08;;;;;;;43.47;29.85;;;20.20;59.60;;;;;;5054093;28;20033;-72
2023/03/22 11:31:48;;;;;;;36.35;28.88;;;20.30;58.10;;;;;;5054603;28;20032;-72
2023/03/22 11:34:20;;;;;;;42.17;27.63;;;20.40;57.10;;;;;;5073043;28;20037;-72
2023/03/22 11:36:53;;;;;;;36.50;26.10;;;20.40;57.40;;;;;;5074416;28;20042;-72
2023/03/22 11:39:21;;;;;;;29.77;23.40;;;20.50;58.30;;;;;;5073931;28;20115;-73
2023/03/22 11:41:47;;;;;;;32.50;25.42;;;20.50;58.40;;;;;;5074101;28;20568;-72
2023/03/22 11:44:17;;;;;;;34.95;23.50;;;20.60;58.70;;;;;;5074160;28;20036;-72
2023/03/22 11:47:00;;;;;;;25.80;20.48;;;20.70;57.40;;;;;;5073946;28;20044;-72
2023/03/22 11:49:50;;;;;;;28.63;21.05;;;20.70;56.90;;;;;;5073969;28;20044;-72
2023/03/22 11:52:18;;;;;;;29.75;20.30;;;20.90;67.50;;;;;;5073690;28;20029;-73
2023/03/22 11:54:46;;;;;;;31.83;23.00;;;20.90;56.50;;;;;;5073226;28;20618;-72
2023/03/22 11:57:33;;;;;;;29.40;23.85;;;21.00;56.00;;;;;;5073496;28;20052;-72
2023/03/22 12:00:20;;;;;;;29.17;23.95;;;21.00;56.50;;;;;;5072701;28;20512;-72
2023/03/22 12:03:12;;;;;;;22.30;17.55;;;21.10;56.60;;;;;;5073518;28;20039;-73
2023/03/22 12:05:41;;;;;;;23.40;15.07;;;21.10;54.80;;;;;;5072765;28;20389;-72
2023/03/22 12:08:31;;;;;;;18.95;13.57;;;21.20;54.00;;;;;;5073468;28;20037;-72
2023/03/22 12:11:06;;;;;;;22.42;17.13;;;21.20;53.50;;;;;;5073227;28;20041;-72
2023/03/22 12:14:00;;;;;;;29.40;20.88;;;21.30;54.00;;;;;;5073499;28;20037;-72
2023/03/22 12:16:31;;;;;;;27.25;17.10;;;21.40;53.60;;;;;;5038895;28;20103;-72
2023/03/22 12:19:22;;;;;;;20.10;14.02;;;21.40;53.50;;;;;;5073375;28;20047;-72
2023/03/22 12:21:48;;;;;;;24.58;18.60;;;21.50;51.60;;;;;;5073207;28;20430;-71
2023/03/22 12:24:41;;;;;;;22.75;17.00;;;;;;;;;;5073275;28;20085;-73
2023/03/22 12:27:17;;;;;;;22.60;16.92;;;21.50;53.20;;;;;;5069495;28;20163;-72
2023/03/22 12:29:50;;;;;;;20.88;16.33;;;21.60;53.90;;;;;;5073077;28;20067;-72
2023/03/22 12:32:40;;;;;;;19.67;15.00;;;21.60;53.00;;;;;;5073143;28;20362;-73
2023/03/22 12:35:14;;;;;;;21.20;16.40;;;21.60;53.10;;;;;;5073319;28;20382;-71
2023/03/22 12:37:43;;;;;;;19.38;15.68;;;21.60;52.70;;;;;;5072967;28;20078;-72
2023/03/22 12:40:25;;;;;;;19.48;15.95;;;21.70;53.00;;;;;;5073115;28;20114;-72
2023/03/22 12:43:10;;;;;;;;;;;21.70;53.80;;;;;;5073458;28;20060;-72
2023/03/22 12:45:41;;;;;;;25.17;16.05;;;21.80;53.80;;;;;;5054493;28;20028;-73